Time;durP1;ratioP1;P1;durP2;ratioP2;P2;SDS_P1;SDS_P2;PMS_P1;PMS_P2;Temp;Humidity;BMP_temperature;BMP_pressure;BME280_temperature;BME280_humidity;BME280_pressure;Samples;Min_cycle;Max_cycle;Signal;HPM_P1;HPM_P2
2024/02/27 06:00:27;;;;;;;16.90;8.70;;;8.40;84.80;;;;;;4881314;23;20213;31
2024/02/27 06:02:29;;;;;;;13.05;8.10;;;8.40;84.90;;;;;;4070439;29;20829;-85
2024/02/27 06:04:31;;;;;;;14.82;8.48;;;8.40;84.80;;;;;;4071864;29;20382;-86
2024/02/27 06:06:33;;;;;;;17.17;9.20;;;8.30;84.50;;;;;;4071697;29;20052;-87
2024/02/27 06:08:35;;;;;;;15.82;9.10;;;8.30;84.50;;;;;;4075081;29;20044;-86
2024/02/27 06:10:38;;;;;;;15.05;8.82;;;8.30;84.90;;;;;;4083035;29;20401;-85
2024/02/27 06:12:40;;;;;;;14.70;8.75;;;8.30;84.60;;;;;;4086194;29;20056;-87
2024/02/27 06:14:42;;;;;;;15.20;8.80;;;8.30;84.50;;;;;;4059136;29;20124;-86
2024/02/27 06:16:45;;;;;;;14.63;9.32;;;8.40;85.00;;;;;;4086081;29;20080;-85
2024/02/27 06:18:48;;;;;;;21.67;12.13;;;8.30;85.60;;;;;;4079151;29;20060;-87
2024/02/27 06:23:08;;;;;;;18.02;10.82;;;8.40;85.70;;;;;;4055791;29;20079;-86
2024/02/27 06:25:10;;;;;;;17.10;10.20;;;8.30;84.80;;;;;;4055899;29;20557;-87
2024/02/27 06:27:12;;;;;;;16.42;9.85;;;8.30;84.70;;;;;;4055574;29;20060;-87
2024/02/27 06:29:13;;;;;;;18.35;10.93;;;8.30;84.90;;;;;;4059143;29;20147;-87
2024/02/27 06:31:15;;;;;;;18.45;11.50;;;8.30;85.00;;;;;;4055530;29;20059;-88
2024/02/27 06:33:19;;;;;;;25.13;14.68;;;8.30;84.80;;;;;;4056034;29;20085;-85
2024/02/27 06:35:21;;;;;;;17.60;9.88;;;8.30;85.20;;;;;;4055461;29;20049;-87
2024/02/27 06:37:23;;;;;;;17.38;9.98;;;8.30;85.20;;;;;;4039040;29;20490;-88
2024/02/27 06:39:23;;;;;;;18.55;10.60;;;8.30;84.90;;;;;;4055265;29;20328;-86
2024/02/27 06:41:25;;;;;;;17.65;10.27;;;8.30;85.20;;;;;;4054999;29;20143;-87
2024/02/27 06:43:27;;;;;;;17.70;10.55;;;8.30;86.10;;;;;;4069094;29;20072;-86
2024/02/27 06:45:30;;;;;;;18.45;10.23;;;8.30;85.20;;;;;;4070960;29;20131;-86
2024/02/27 06:47:31;;;;;;;18.85;10.88;;;8.30;85.30;;;;;;4054642;29;20083;-85
2024/02/27 06:49:35;;;;;;;17.48;9.93;;;8.30;85.30;;;;;;4072755;29;20513;-85
2024/02/27 06:51:37;;;;;;;18.48;10.25;;;8.20;85.30;;;;;;4073778;29;20059;-86
2024/02/27 06:53:41;;;;;;;17.35;10.40;;;8.20;85.80;;;;;;4071345;29;20048;-85
2024/02/27 06:55:42;;;;;;;20.60;10.77;;;8.30;85.60;;;;;;4054909;29;20063;-86
2024/02/27 06:57:44;;;;;;;17.70;10.02;;;8.20;85.60;;;;;;4070768;29;20051;-86
2024/02/27 06:59:47;;;;;;;18.55;10.32;;;8.30;85.90;;;;;;4070840;29;20052;-85
2024/02/27 07:01:48;;;;;;;16.48;9.93;;;8.30;85.60;;;;;;4070690;29;20060;-88
2024/02/27 07:03:51;;;;;;;16.45;10.57;;;8.30;85.80;;;;;;4055049;29;20080;-85
2024/02/27 07:05:54;;;;;;;16.73;10.68;;;8.30;85.80;;;;;;4070636;29;20048;-86
2024/02/27 07:07:56;;;;;;;17.38;10.32;;;8.30;86.10;;;;;;4071130;29;20075;-87
2024/02/27 07:09:57;;;;;;;17.80;10.70;;;8.30;86.20;;;;;;4053593;29;20051;-85
2024/02/27 07:12:00;;;;;;;16.52;10.00;;;8.30;86.20;;;;;;4056122;29;20057;-86
2024/02/27 07:14:02;;;;;;;19.25;10.43;;;8.30;86.00;;;;;;4060912;29;20060;-86
2024/02/27 07:16:06;;;;;;;18.20;11.07;;;8.40;86.30;;;;;;4076246;29;20058;-86
2024/02/27 07:18:08;;;;;;;19.38;10.77;;;8.30;86.20;;;;;;4073164;29;20056;-86
2024/02/27 07:20:11;;;;;;;18.30;10.68;;;8.30;86.10;;;;;;4075973;29;20073;-86
2024/02/27 07:22:14;;;;;;;17.77;10.30;;;8.40;86.00;;;;;;4053677;29;20049;-86
2024/02/27 07:24:16;;;;;;;19.88;11.18;;;8.40;86.70;;;;;;4071407;29;20052;-85
2024/02/27 07:26:19;;;;;;;19.42;11.05;;;8.40;86.80;;;;;;4075990;29;20087;-85
2024/02/27 07:28:21;;;;;;;21.63;12.63;;;8.40;86.60;;;;;;4038602;29;20101;-86
2024/02/27 07:30:23;;;;;;;24.45;13.48;;;8.40;86.40;;;;;;4074602;29;20485;-85
2024/02/27 07:32:25;;;;;;;26.00;14.02;;;8.50;87.40;;;;;;4075673;29;20048;-84
2024/02/27 07:34:27;;;;;;;26.15;15.27;;;8.50;86.60;;;;;;4080124;29;20056;-86
2024/02/27 07:36:28;;;;;;;29.45;17.60;;;8.50;86.40;;;;;;4070755;29;20383;-86
2024/02/27 07:38:32;;;;;;;32.92;18.17;;;8.50;86.20;;;;;;4070395;29;20107;-87
2024/02/27 07:40:34;;;;;;;25.63;14.80;;;8.60;86.70;;;;;;4058963;29;20052;-84
2024/02/27 07:42:36;;;;;;;22.63;13.55;;;8.60;86.40;;;;;;4075157;29;20490;-86
2024/02/27 07:44:38;;;;;;;21.90;13.27;;;8.60;86.40;;;;;;4070250;29;20104;-87
2024/02/27 07:46:40;;;;;;;23.30;13.25;;;8.60;86.50;;;;;;4071663;29;20055;-85
2024/02/27 07:48:45;;;;;;;20.20;12.70;;;8.60;86.20;;;;;;4084488;29;20048;-86
2024/02/27 07:50:48;;;;;;;23.13;12.80;;;8.60;85.70;;;;;;4081428;29;20055;-87
2024/02/27 07:52:50;;;;;;;19.92;12.65;;;8.70;86.00;;;;;;4073154;29;20142;-86
2024/02/27 07:54:53;;;;;;;21.77;13.18;;;8.70;86.00;;;;;;4053113;29;20048;-85
2024/02/27 07:56:55;;;;;;;23.52;12.50;;;8.70;85.90;;;;;;4070727;29;20477;-86
2024/02/27 07:58:58;;;;;;;20.85;12.55;;;8.80;86.30;;;;;;4071230;29;20051;-85
2024/02/27 08:01:01;;;;;;;22.38;11.95;;;8.80;86.30;;;;;;4070842;29;20386;-86
2024/02/27 08:03:03;;;;;;;22.15;12.43;;;8.80;85.60;;;;;;4060409;29;20081;-85
2024/02/27 08:05:06;;;;;;;20.38;13.00;;;8.80;85.70;;;;;;4083132;29;20044;-85
2024/02/27 08:07:09;;;;;;;19.52;11.80;;;8.80;85.60;;;;;;4063072;29;20074;-86
2024/02/27 08:09:11;;;;;;;20.63;12.82;;;8.80;86.10;;;;;;4072807;29;20079;-86
2024/02/27 08:11:15;;;;;;;20.80;12.43;;;8.90;85.30;;;;;;4073775;29;20056;-85
2024/02/27 08:13:19;;;;;;;22.80;12.55;;;8.90;85.20;;;;;;4076127;29;20051;-86
2024/02/27 08:15:22;;;;;;;24.05;13.57;;;8.80;84.80;;;;;;4074214;29;20048;-85
2024/02/27 08:17:23;;;;;;;22.60;12.90;;;8.80;85.20;;;;;;4076825;29;20079;-87
2024/02/27 08:19:25;;;;;;;28.42;16.15;;;8.90;85.50;;;;;;4077836;29;20060;-86
2024/02/27 08:21:27;;;;;;;23.40;13.95;;;8.90;85.40;;;;;;4079064;29;20052;-86
2024/02/27 08:23:30;;;;;;;24.13;15.45;;;8.80;85.30;;;;;;4070550;29;20512;-86
2024/02/27 08:25:31;;;;;;;28.02;16.65;;;8.80;85.30;;;;;;4072234;29;20442;-87
2024/02/27 08:27:35;;;;;;;26.40;15.20;;;8.80;85.60;;;;;;4073088;29;20091;-86
2024/02/27 08:29:37;;;;;;;23.65;14.98;;;8.80;85.10;;;;;;4071327;29;20517;-84
2024/02/27 08:31:40;;;;;;;24.92;14.35;;;8.80;85.30;;;;;;4070327;29;20182;-85
2024/02/27 08:33:42;;;;;;;23.63;13.95;;;8.80;85.40;;;;;;4071502;29;20056;-87
2024/02/27 08:35:44;;;;;;;23.58;14.18;;;8.80;85.50;;;;;;4071661;29;20112;-85
2024/02/27 08:37:46;;;;;;;22.23;13.95;;;8.80;85.70;;;;;;4071305;29;20115;-87
2024/02/27 08:39:47;;;;;;;24.40;14.27;;;8.80;86.30;;;;;;4073943;29;20048;-86
2024/02/27 08:41:49;;;;;;;22.77;14.20;;;8.80;85.70;;;;;;4073109;29;20103;-87
2024/02/27 08:43:53;;;;;;;21.20;13.50;;;8.80;86.10;;;;;;4055028;29;20120;-86
2024/02/27 08:45:55;;;;;;;20.75;12.95;;;8.90;86.30;;;;;;4076108;29;20054;-87
2024/02/27 08:47:57;;;;;;;27.15;16.20;;;8.80;86.30;;;;;;4054235;29;20490;-86
2024/02/27 08:50:00;;;;;;;26.27;15.70;;;8.80;86.70;;;;;;4069461;29;20094;-84
2024/02/27 08:52:01;;;;;;;24.98;15.00;;;8.90;86.60;;;;;;4074086;29;20074;-85
2024/02/27 08:54:03;;;;;;;24.25;14.95;;;8.90;86.40;;;;;;4072094;29;20537;-86
2024/02/27 08:56:06;;;;;;;24.27;14.82;;;8.90;86.00;;;;;;4074170;29;20052;-85
2024/02/27 08:58:11;;;;;;;23.13;15.20;;;8.90;85.70;;;;;;4071321;29;20052;-86
2024/02/27 09:00:16;;;;;;;24.42;14.68;;;8.90;85.80;;;;;;4059123;29;20072;-85
2024/02/27 09:02:18;;;;;;;29.08;15.80;;;8.90;86.10;;;;;;4075750;29;20067;-86
2024/02/27 09:04:19;;;;;;;24.10;15.45;;;8.90;85.80;;;;;;4082164;29;20044;-87
2024/02/27 09:06:21;;;;;;;24.45;15.32;;;8.90;85.70;;;;;;4070633;29;20379;-88
2024/02/27 09:08:23;;;;;;;26.88;15.65;;;8.90;85.80;;;;;;4069032;29;20052;-86
2024/02/27 09:10:25;;;;;;;26.10;15.68;;;8.90;85.60;;;;;;4074429;29;20081;-86
2024/02/27 09:12:29;;;;;;;24.90;15.40;;;8.80;85.30;;;;;;4080903;29;20060;-87
2024/02/27 09:14:31;;;;;;;25.05;15.95;;;8.80;85.70;;;;;;4080133;29;20502;-87
2024/02/27 09:16:34;;;;;;;24.70;15.30;;;8.80;86.20;;;;;;4077113;29;20049;-86
2024/02/27 09:18:39;;;;;;;28.30;16.00;;;8.80;86.50;;;;;;4075574;29;20119;-87
2024/02/27 09:20:43;;;;;;;25.83;15.75;;;8.80;86.40;;;;;;4074939;29;20059;-87
2024/02/27 09:22:45;;;;;;;25.05;15.10;;;8.80;86.70;;;;;;4072702;29;20055;-84
2024/02/27 09:24:47;;;;;;;31.13;18.52;;;8.90;86.70;;;;;;4060630;29;20057;-85
2024/02/27 09:26:49;;;;;;;31.23;18.52;;;8.90;86.90;;;;;;4069477;29;20104;-86
2024/02/27 09:28:51;;;;;;;27.77;16.75;;;8.90;87.10;;;;;;4073538;29;20048;-83
2024/02/27 09:30:53;;;;;;;32.22;18.52;;;8.90;86.90;;;;;;4077510;29;20413;-84
2024/02/27 09:32:57;;;;;;;29.15;17.80;;;8.90;87.40;;;;;;4076267;29;20124;-84
2024/02/27 09:34:58;;;;;;;25.23;16.48;;;8.90;86.40;;;;;;4074370;29;20048;-85
2024/02/27 09:36:59;;;;;;;26.77;16.88;;;8.90;86.60;;;;;;4070695;29;20088;-84
2024/02/27 09:39:03;;;;;;;27.52;16.23;;;8.90;86.50;;;;;;4074510;29;20099;-87
2024/02/27 09:41:06;;;;;;;30.00;17.13;;;8.90;86.80;;;;;;4080422;29;20051;-85
2024/02/27 09:43:21;;;;;;;23.42;14.80;;;8.90;86.70;;;;;;4080711;29;20060;-83
2024/02/27 09:45:26;;;;;;;22.50;14.93;;;9.00;87.10;;;;;;4070244;29;20049;-85
2024/02/27 09:47:27;;;;;;;26.88;15.68;;;9.00;87.20;;;;;;4055746;29;20120;-86
2024/02/27 09:49:31;;;;;;;23.90;15.48;;;9.10;87.30;;;;;;4060238;29;20056;-85
2024/02/27 09:51:36;;;;;;;25.50;15.75;;;9.10;86.80;;;;;;4055937;29;20044;-84
2024/02/27 09:53:40;;;;;;;24.00;15.50;;;9.10;86.40;;;;;;4058909;29;20084;-79
2024/02/27 09:55:41;;;;;;;25.70;16.02;;;9.10;86.00;;;;;;4058381;29;20056;-85
2024/02/27 09:57:44;;;;;;;27.02;15.95;;;9.10;85.90;;;;;;4055673;29;20060;-85
2024/02/27 09:59:49;;;;;;;26.77;15.75;;;9.10;86.00;;;;;;4059149;29;20089;-83
2024/02/27 10:01:51;;;;;;;25.73;15.57;;;9.10;85.70;;;;;;4071744;29;20060;-78
2024/02/27 10:03:54;;;;;;;24.60;15.18;;;9.10;86.70;;;;;;4070765;29;20052;-79
2024/02/27 10:05:58;;;;;;;24.88;15.68;;;9.20;85.70;;;;;;4071506;29;20076;-78
2024/02/27 10:08:03;;;;;;;22.10;14.18;;;9.20;85.90;;;;;;4071102;29;20052;-78
2024/02/27 10:10:12;;;;;;;24.73;15.13;;;9.20;86.00;;;;;;4071624;29;20107;-78
2024/02/27 10:12:16;;;;;;;23.92;15.15;;;9.30;85.80;;;;;;4071311;29;20382;-79
2024/02/27 10:14:30;;;;;;;25.23;14.52;;;9.30;85.90;;;;;;4071044;29;20052;-79
2024/02/27 10:16:32;;;;;;;24.60;14.63;;;9.30;85.80;;;;;;4070692;29;20458;-80
2024/02/27 10:18:33;;;;;;;22.55;13.70;;;9.30;85.40;;;;;;4070395;29;20056;-79
2024/02/27 10:20:35;;;;;;;23.00;14.63;;;9.30;85.30;;;;;;4069720;29;20044;-80
2024/02/27 10:22:38;;;;;;;25.10;14.50;;;9.30;84.90;;;;;;4069869;29;20088;-80
2024/02/27 10:24:40;;;;;;;23.02;14.25;;;9.30;85.00;;;;;;4070248;29;20056;-78
2024/02/27 10:26:52;;;;;;;23.85;14.15;;;9.30;85.30;;;;;;4064072;29;20045;-79
2024/02/27 10:28:54;;;;;;;26.63;14.80;;;9.40;85.20;;;;;;4052923;29;20108;-80
2024/02/27 10:30:58;;;;;;;24.67;14.82;;;9.40;85.20;;;;;;4052742;29;20104;-81
2024/02/27 10:33:01;;;;;;;22.77;13.88;;;9.40;85.20;;;;;;4062887;29;20052;-81
2024/02/27 10:35:05;;;;;;;26.08;15.90;;;9.40;85.20;;;;;;4068376;29;20488;-79
2024/02/27 10:37:09;;;;;;;29.73;18.50;;;9.40;85.20;;;;;;4069335;29;20052;-82
2024/02/27 10:39:11;;;;;;;36.85;20.35;;;9.40;85.90;;;;;;4070411;29;20131;-81
2024/02/27 10:41:13;;;;;;;34.55;20.42;;;9.50;86.10;;;;;;4069780;29;20123;-81
2024/02/27 10:43:15;;;;;;;28.05;18.17;;;9.50;86.10;;;;;;4070528;29;20055;-82
2024/02/27 10:45:18;;;;;;;22.40;14.18;;;9.60;85.90;;;;;;4069708;29;20056;-78
2024/02/27 10:47:22;;;;;;;23.67;13.52;;;9.70;85.90;;;;;;4065731;29;20520;-78
2024/02/27 10:49:24;;;;;;;26.42;14.18;;;9.70;84.60;;;;;;4067058;29;20063;-77
2024/02/27 10:51:26;;;;;;;23.60;13.52;;;9.70;84.50;;;;;;4066974;29;20104;-78
2024/02/27 10:53:30;;;;;;;21.05;13.18;;;9.80;84.10;;;;;;4068492;29;20052;-75
2024/02/27 10:55:33;;;;;;;21.55;12.80;;;9.80;84.00;;;;;;4067983;29;20056;-77
2024/02/27 10:57:37;;;;;;;24.33;13.65;;;9.90;83.80;;;;;;4068295;29;20056;-76
2024/02/27 10:59:40;;;;;;;21.00;12.75;;;10.00;83.90;;;;;;4068013;29;20052;-77
2024/02/27 11:01:42;;;;;;;23.35;13.40;;;10.10;83.40;;;;;;4065633;29;20068;-77
2024/02/27 11:03:50;;;;;;;22.40;14.13;;;10.10;82.80;;;;;;4067468;29;20055;-79
2024/02/27 11:05:52;;;;;;;20.90;13.80;;;10.20;83.60;;;;;;4067866;29;20048;-75
2024/02/27 11:07:55;;;;;;;22.63;12.98;;;10.40;82.40;;;;;;4067731;29;20127;-78
2024/02/27 11:09:59;;;;;;;20.30;12.32;;;10.40;82.20;;;;;;4067707;29;20557;-78
2024/02/27 11:12:04;;;;;;;20.02;12.45;;;10.40;82.20;;;;;;4067520;29;20490;-79
2024/02/27 11:14:06;;;;;;;18.48;12.10;;;10.50;81.60;;;;;;4067318;29;20052;-80
2024/02/27 11:16:11;;;;;;;19.35;11.25;;;10.50;80.90;;;;;;4067226;29;20095;-80
2024/02/27 11:18:16;;;;;;;19.38;11.30;;;10.50;81.50;;;;;;4067774;29;20111;-78
2024/02/27 11:20:18;;;;;;;19.57;12.43;;;10.60;81.00;;;;;;4067582;29;20056;-78
2024/02/27 11:22:23;;;;;;;18.88;12.00;;;10.50;80.90;;;;;;4067556;29;20052;-79
2024/02/27 11:24:25;;;;;;;18.45;11.90;;;10.50;80.60;;;;;;4067565;29;20078;-77
2024/02/27 11:26:27;;;;;;;20.17;12.32;;;10.50;81.10;;;;;;4067363;29;20565;-77
2024/02/27 11:28:31;;;;;;;19.73;12.45;;;10.50;81.50;;;;;;4067365;29;20143;-78
2024/02/27 11:30:35;;;;;;;21.08;13.20;;;10.60;81.10;;;;;;4068080;29;20056;-77
2024/02/27 11:32:37;;;;;;;20.58;12.27;;;10.50;80.70;;;;;;4067817;29;20186;-79
2024/02/27 11:34:40;;;;;;;19.50;12.05;;;10.50;81.50;;;;;;4067555;29;20060;-78
2024/02/27 11:36:41;;;;;;;19.27;11.60;;;10.60;81.30;;;;;;4068354;29;20142;-76
2024/02/27 11:38:44;;;;;;;20.05;12.43;;;10.60;80.90;;;;;;4068877;29;20060;-77
2024/02/27 11:40:47;;;;;;;22.77;12.88;;;10.60;80.80;;;;;;4069534;29;20082;-79
2024/02/27 11:42:49;;;;;;;23.50;14.57;;;10.60;81.10;;;;;;4068440;29;20465;-77
2024/02/27 11:45:08;;;;;;;21.48;13.85;;;10.50;80.80;;;;;;4066481;29;20056;-80
2024/02/27 11:47:34;;;;;;;20.77;12.13;;;10.50;80.40;;;;;;4073425;29;20051;-81
2024/02/27 11:49:40;;;;;;;22.00;13.32;;;10.50;80.90;;;;;;4066451;29;20572;-79
2024/02/27 11:51:42;;;;;;;19.92;11.38;;;10.50;80.90;;;;;;4066335;29;20059;-80
2024/02/27 11:53:43;;;;;;;23.63;15.63;;;10.50;81.00;;;;;;4067171;29;20135;-82
2024/02/27 11:55:45;;;;;;;22.90;13.40;;;10.50;80.90;;;;;;4066692;29;20048;-82
2024/02/27 11:57:50;;;;;;;19.27;12.07;;;10.50;80.50;;;;;;4068289;29;20056;-80
2024/02/27 11:59:52;;;;;;;18.43;11.53;;;10.60;80.90;;;;;;4068938;29;20845;-81
2024/02/27 12:02:03;;;;;;;18.40;11.32;;;10.60;80.50;;;;;;4066741;29;20572;-78
2024/02/27 12:04:06;;;;;;;18.08;11.52;;;10.70;80.60;;;;;;4066874;29;20838;-79
2024/02/27 12:06:09;;;;;;;21.20;12.18;;;10.70;80.60;;;;;;4066853;29;20056;-80
2024/02/27 12:08:11;;;;;;;21.83;11.93;;;10.70;80.60;;;;;;4066928;29;20052;-80
2024/02/27 12:10:15;;;;;;;18.38;12.27;;;10.80;81.10;;;;;;4067088;29;20056;-80
2024/02/27 12:12:18;;;;;;;20.95;12.32;;;10.80;80.40;;;;;;4067464;29;20485;-79
2024/02/27 12:14:20;;;;;;;20.63;12.30;;;10.80;80.20;;;;;;4066275;29;20048;-81
2024/02/27 12:16:24;;;;;;;19.52;11.57;;;10.90;80.70;;;;;;4066698;29;20044;-79
2024/02/27 12:18:28;;;;;;;19.27;11.55;;;11.00;80.10;;;;;;4065856;29;20063;-79
2024/02/27 12:20:29;;;;;;;21.58;12.60;;;11.00;79.80;;;;;;4052358;29;20056;-78
2024/02/27 12:22:31;;;;;;;20.65;11.95;;;11.00;79.20;;;;;;4050785;29;20442;-78
2024/02/27 12:24:33;;;;;;;21.58;12.77;;;10.90;79.20;;;;;;4051626;29;20509;-81
2024/02/27 12:26:35;;;;;;;20.67;11.90;;;11.00;79.20;;;;;;4056594;29;20112;-77
2024/02/27 12:28:37;;;;;;;21.13;12.55;;;11.00;79.30;;;;;;4057737;29;20512;-80
2024/02/27 12:30:46;;;;;;;21.10;13.07;;;11.10;79.10;;;;;;4034292;29;20053;-79
2024/02/27 12:32:48;;;;;;;23.10;13.38;;;11.20;79.10;;;;;;4051812;29;20481;-81
2024/02/27 12:34:52;;;;;;;19.80;12.75;;;11.30;78.80;;;;;;4057293;29;20489;-78
2024/02/27 12:36:53;;;;;;;21.95;12.57;;;11.40;78.80;;;;;;4055726;29;20107;-80
2024/02/27 12:38:56;;;;;;;18.83;12.80;;;11.40;78.40;;;;;;4057168;29;20057;-79
2024/02/27 12:40:58;;;;;;;21.02;12.82;;;11.40;77.90;;;;;;4051181;29;20135;-77
2024/02/27 12:43:02;;;;;;;18.08;12.30;;;11.20;78.40;;;;;;4055644;29;20478;-80
2024/02/27 12:45:09;;;;;;;22.70;13.13;;;11.20;78.70;;;;;;4050645;29;20064;-78
2024/02/27 12:47:12;;;;;;;21.55;14.35;;;11.20;79.00;;;;;;4050977;29;20064;-81
2024/02/27 12:49:15;;;;;;;22.35;12.60;;;11.20;79.40;;;;;;4051018;29;20058;-80
2024/02/27 12:51:19;;;;;;;19.42;12.63;;;11.20;78.80;;;;;;4050892;29;20816;-78
2024/02/27 12:53:21;;;;;;;19.63;12.88;;;11.10;78.60;;;;;;4051111;29;20191;-78
2024/02/27 12:55:24;;;;;;;22.40;13.68;;;11.20;79.30;;;;;;4051315;29;20451;-80
2024/02/27 12:57:26;;;;;;;21.90;13.52;;;11.20;78.70;;;;;;4051075;29;20048;-79
2024/02/27 12:59:28;;;;;;;21.33;12.80;;;11.20;78.80;;;;;;4057164;29;20056;-77
2024/02/27 13:01:32;;;;;;;22.67;13.35;;;11.20;78.40;;;;;;4055613;29;20059;-78
2024/02/27 13:03:35;;;;;;;25.80;14.35;;;11.20;78.50;;;;;;4050410;29;20119;-80
2024/02/27 13:05:37;;;;;;;22.83;13.98;;;11.20;78.70;;;;;;4050654;29;20063;-79
2024/02/27 13:07:40;;;;;;;20.80;13.32;;;11.20;77.70;;;;;;4052809;29;20566;-79
2024/02/27 13:09:42;;;;;;;19.77;13.18;;;11.30;78.10;;;;;;4064498;29;20449;-79
2024/02/27 13:11:43;;;;;;;19.48;13.25;;;11.40;77.40;;;;;;4066278;29;20052;-78
2024/02/27 13:13:46;;;;;;;19.83;13.38;;;11.60;77.00;;;;;;4053868;29;20053;-81
2024/02/27 13:15:49;;;;;;;21.15;13.63;;;11.70;76.50;;;;;;4053401;29;20550;-80
2024/02/27 13:17:51;;;;;;;19.38;13.65;;;11.80;77.10;;;;;;4055190;29;20141;-78
2024/02/27 13:19:53;;;;;;;23.55;14.07;;;11.80;77.20;;;;;;4059063;29;20056;-78
2024/02/27 13:21:57;;;;;;;25.42;14.27;;;11.90;76.70;;;;;;4060452;29;20103;-76
2024/02/27 13:24:04;;;;;;;29.48;19.10;;;12.00;76.40;;;;;;4055574;29;20140;-79
2024/02/27 13:26:05;;;;;;;22.55;14.75;;;12.00;76.30;;;;;;4056589;29;20049;-80
2024/02/27 13:28:07;;;;;;;22.30;14.35;;;12.00;75.50;;;;;;4056772;29;20107;-81
2024/02/27 13:30:10;;;;;;;25.92;14.63;;;12.10;75.00;;;;;;4058365;29;20060;-78
2024/02/27 13:32:12;;;;;;;22.48;13.63;;;12.10;74.80;;;;;;4061233;29;20391;-79
2024/02/27 13:34:15;;;;;;;20.42;13.95;;;12.40;75.00;;;;;;4053855;29;20084;-79
2024/02/27 13:36:17;;;;;;;20.92;13.50;;;12.70;73.20;;;;;;4055110;29;20063;-78
2024/02/27 13:38:19;;;;;;;20.70;13.15;;;12.80;72.50;;;;;;4053548;29;20052;-80
2024/02/27 13:40:22;;;;;;;23.27;13.75;;;12.70;72.70;;;;;;4053048;29;20458;-79
2024/02/27 13:42:24;;;;;;;26.50;14.43;;;12.50;72.60;;;;;;4060011;29;20810;-80
2024/02/27 13:44:26;;;;;;;19.27;13.30;;;12.50;73.90;;;;;;4055244;29;20048;-79
2024/02/27 13:46:27;;;;;;;22.52;14.13;;;12.50;73.20;;;;;;4057844;29;20100;-79
2024/02/27 13:48:29;;;;;;;22.15;14.32;;;12.40;73.10;;;;;;4053474;29;20097;-79
2024/02/27 13:50:30;;;;;;;21.88;14.52;;;12.20;74.40;;;;;;4059155;29;20052;-79
2024/02/27 13:52:32;;;;;;;22.23;14.93;;;12.20;74.90;;;;;;4053258;29;20143;-80
2024/02/27 13:54:34;;;;;;;22.75;14.77;;;12.00;75.10;;;;;;4053201;29;20052;-79
2024/02/27 13:56:37;;;;;;;23.05;15.55;;;11.90;75.00;;;;;;4052812;29;20060;-81
2024/02/27 13:58:39;;;;;;;24.55;16.55;;;11.90;75.20;;;;;;4054907;29;20632;-80
2024/02/27 14:00:41;;;;;;;27.20;16.20;;;11.80;75.60;;;;;;4061519;29;20112;-78
2024/02/27 14:02:43;;;;;;;26.88;16.10;;;11.80;76.10;;;;;;4053105;29;20056;-84
2024/02/27 14:04:44;;;;;;;24.58;16.73;;;11.70;76.40;;;;;;4059906;29;20509;-85
2024/02/27 14:06:46;;;;;;;25.17;16.42;;;11.60;76.70;;;;;;4053508;29;20183;-87
2024/02/27 14:08:48;;;;;;;25.15;17.15;;;11.60;77.00;;;;;;4060804;29;20111;-85
2024/02/27 14:10:50;;;;;;;23.25;16.42;;;11.40;77.40;;;;;;4059763;29;20056;-84
2024/02/27 14:12:53;;;;;;;23.45;16.33;;;11.50;77.90;;;;;;4060647;29;20470;-84
2024/02/27 14:14:55;;;;;;;23.20;16.45;;;11.40;77.40;;;;;;4055658;29;20115;-83
2024/02/27 14:16:57;;;;;;;23.23;15.98;;;11.40;77.90;;;;;;4066331;29;20056;-85
2024/02/27 14:18:59;;;;;;;24.90;16.52;;;11.40;77.50;;;;;;4062216;29;20403;-83
2024/02/27 14:21:00;;;;;;;27.05;17.70;;;11.40;77.80;;;;;;4054103;29;20466;-87
2024/02/27 14:23:02;;;;;;;24.85;15.93;;;11.40;78.30;;;;;;4062262;29;20844;-85
2024/02/27 14:25:06;;;;;;;25.88;17.17;;;11.40;78.70;;;;;;4055050;29;20115;-84
2024/02/27 14:27:08;;;;;;;27.33;16.75;;;11.40;78.50;;;;;;4055497;29;20056;-84
2024/02/27 14:29:11;;;;;;;24.85;16.27;;;11.40;78.40;;;;;;4055761;29;20108;-85
2024/02/27 14:31:13;;;;;;;26.50;17.13;;;11.30;78.50;;;;;;4062909;29;20557;-85
2024/02/27 14:33:14;;;;;;;26.23;17.27;;;11.30;78.80;;;;;;4063616;29;20050;-84
2024/02/27 14:35:16;;;;;;;26.65;17.33;;;11.20;78.90;;;;;;4054857;29;20672;-83
2024/02/27 14:37:18;;;;;;;25.42;17.50;;;11.20;78.90;;;;;;4055262;29;20052;-84
2024/02/27 14:39:25;;;;;;;27.70;17.92;;;11.10;79.40;;;;;;4055333;29;20144;-85
2024/02/27 14:41:26;;;;;;;36.65;22.35;;;11.00;79.90;;;;;;4055137;29;20057;-84
2024/02/27 14:43:27;;;;;;;29.40;18.92;;;11.10;80.10;;;;;;4064631;29;20053;-86
2024/02/27 14:45:31;;;;;;;27.85;17.40;;;11.20;80.00;;;;;;4068418;29;20049;-84
2024/02/27 14:47:32;;;;;;;26.17;18.00;;;11.20;79.80;;;;;;4066646;29;20110;-84
2024/02/27 14:49:34;;;;;;;27.30;18.13;;;11.20;80.20;;;;;;4054902;29;20057;-84
2024/02/27 14:51:39;;;;;;;27.23;18.15;;;11.10;79.80;;;;;;4061901;29;20119;-85
2024/02/27 14:53:40;;;;;;;27.15;18.13;;;11.20;80.20;;;;;;4062797;29;20056;-85
2024/02/27 14:55:42;;;;;;;27.48;18.23;;;11.00;80.10;;;;;;4058786;29;20053;-84
2024/02/27 14:57:44;;;;;;;30.15;19.05;;;10.90;80.30;;;;;;4061858;29;20080;-84
2024/02/27 14:59:45;;;;;;;27.13;18.15;;;10.90;80.50;;;;;;4059492;29;20103;-84
2024/02/27 15:01:48;;;;;;;26.90;18.45;;;11.00;80.70;;;;;;4055381;29;20064;-85
2024/02/27 15:03:57;;;;;;;28.88;18.33;;;10.90;80.70;;;;;;4062511;29;20466;-83
2024/02/27 15:06:02;;;;;;;26.75;17.95;;;11.00;80.90;;;;;;4062548;29;20053;-84
2024/02/27 15:08:07;;;;;;;;;;;11.00;80.90;;;;;;4070681;29;20084;-83
2024/02/27 15:10:13;;;;;;;27.00;17.90;;;11.00;80.80;;;;;;4073266;29;19923;-83
2024/02/27 15:12:20;;;;;;;27.67;17.92;;;10.80;81.00;;;;;;4072235;29;20052;-84
2024/02/27 15:14:23;;;;;;;28.67;18.55;;;10.80;81.30;;;;;;4080838;29;20054;-85
2024/02/27 15:16:26;;;;;;;29.90;18.55;;;10.80;81.30;;;;;;4079181;29;20067;-84
2024/02/27 15:18:29;;;;;;;28.02;18.40;;;10.80;81.80;;;;;;4056054;29;20066;-83
2024/02/27 15:20:32;;;;;;;28.20;17.65;;;10.80;81.80;;;;;;4069781;29;20047;-82
2024/02/27 15:22:34;;;;;;;28.20;18.58;;;10.80;81.70;;;;;;4067366;29;20139;-83
2024/02/27 15:24:37;;;;;;;29.92;19.10;;;10.80;81.60;;;;;;4061700;29;20076;-81
2024/02/27 15:26:39;;;;;;;26.88;17.40;;;10.80;81.80;;;;;;4073294;29;20048;-79
2024/02/27 15:28:52;;;;;;;29.83;18.63;;;10.80;83.70;;;;;;4071825;29;20063;-86
2024/02/27 15:30:55;;;;;;;28.15;17.83;;;10.80;82.20;;;;;;4076522;29;20146;-85
2024/02/27 15:33:16;;;;;;;27.60;18.10;;;10.80;82.00;;;;;;4072057;29;20063;-83
2024/02/27 15:35:21;;;;;;;29.70;18.60;;;10.80;81.90;;;;;;4055221;29;20382;-86
2024/02/27 15:37:24;;;;;;;29.50;19.02;;;10.70;83.00;;;;;;4064678;29;20051;-84
2024/02/27 15:39:28;;;;;;;25.92;17.00;;;10.70;82.50;;;;;;4071331;29;20075;-83
2024/02/27 15:41:30;;;;;;;29.23;18.77;;;10.70;82.80;;;;;;4070629;29;20056;-84
2024/02/27 15:43:38;;;;;;;28.75;18.67;;;10.70;82.50;;;;;;4062771;29;20044;-85
2024/02/27 15:45:44;;;;;;;28.75;18.63;;;10.70;82.40;;;;;;4065448;29;20056;-86
2024/02/27 15:47:49;;;;;;;;;;;10.70;82.40;;;;;;4079347;29;20513;-85
2024/02/27 15:49:52;;;;;;;27.10;16.83;;;10.70;82.60;;;;;;4074553;29;19929;-83
2024/02/27 15:52:00;;;;;;;26.63;17.33;;;10.60;82.30;;;;;;4071428;29;20063;-84
2024/02/27 15:54:03;;;;;;;28.52;17.27;;;10.60;82.70;;;;;;4051739;29;20451;-86
2024/02/27 15:56:07;;;;;;;26.33;17.50;;;10.50;83.20;;;;;;4063488;29;20203;-85
2024/02/27 15:58:11;;;;;;;28.02;17.35;;;10.50;83.10;;;;;;4076664;29;20085;-82
2024/02/27 16:00:17;;;;;;;30.35;18.50;;;10.50;83.30;;;;;;4074856;29;20043;-84
2024/02/27 16:02:21;;;;;;;29.67;18.42;;;10.50;83.30;;;;;;4060460;29;20056;-84
2024/02/27 16:04:39;;;;;;;26.48;16.77;;;10.50;83.50;;;;;;4060472;29;20080;-84
2024/02/27 16:06:47;;;;;;;30.00;17.77;;;10.40;83.70;;;;;;4061833;29;20082;-83
2024/02/27 16:08:52;;;;;;;28.65;17.40;;;10.40;83.80;;;;;;4070676;29;20062;-84
2024/02/27 16:10:57;;;;;;;27.60;18.10;;;10.40;84.00;;;;;;4079043;29;20066;-86
2024/02/27 16:12:58;;;;;;;26.80;17.17;;;10.40;84.00;;;;;;4090612;29;20095;-84
2024/02/27 16:15:05;;;;;;;26.88;17.00;;;10.40;83.90;;;;;;4050192;29;20049;-84
2024/02/27 16:17:08;;;;;;;28.98;17.83;;;10.40;83.90;;;;;;4072431;29;20059;-84
2024/02/27 16:19:11;;;;;;;27.17;17.02;;;10.40;83.80;;;;;;4077969;29;20052;-84
2024/02/27 16:21:19;;;;;;;27.27;16.75;;;10.40;83.90;;;;;;4070148;29;20047;-82
2024/02/27 16:23:25;;;;;;;27.85;17.63;;;10.30;84.20;;;;;;4066735;29;20091;-82
2024/02/27 16:25:30;;;;;;;28.17;16.98;;;10.30;84.30;;;;;;4068594;29;20056;-82
2024/02/27 16:27:32;;;;;;;26.80;17.15;;;10.30;84.20;;;;;;4063796;29;20064;-84
2024/02/27 16:29:33;;;;;;;32.30;17.60;;;10.30;84.20;;;;;;4070593;29;20076;-83
2024/02/27 16:31:36;;;;;;;28.05;17.45;;;10.30;84.10;;;;;;4061077;29;20152;-82